sensor_id;sensor_type;location;lat;lon;timestamp;temperature;humidity
18884;DHT22;9574;47.282;9.640;2023-10-08T00:01:38;13.80;99.90
18884;DHT22;9574;47.282;9.640;2023-10-08T00:04:08;13.70;99.90
18884;DHT22;9574;47.282;9.640;2023-10-08T00:06:37;13.60;99.90
18884;DHT22;9574;47.282;9.640;2023-10-08T00:09:04;13.50;99.90
18884;DHT22;9574;47.282;9.640;2023-10-08T00:11:37;13.90;99.90
18884;DHT22;9574;47.282;9.640;2023-10-08T00:14:06;14.20;99.90
18884;DHT22;9574;47.282;9.640;2023-10-08T00:16:36;14.40;99.90
18884;DHT22;9574;47.282;9.640;2023-10-08T00:19:05;14.10;99.90
18884;DHT22;9574;47.282;9.640;2023-10-08T00:21:36;13.90;99.90
18884;DHT22;9574;47.282;9.640;2023-10-08T00:24:04;13.70;99.90
18884;DHT22;9574;47.282;9.640;2023-10-08T00:26:33;13.70;99.90
18884;DHT22;9574;47.282;9.640;2023-10-08T00:29:06;13.50;99.90
18884;DHT22;9574;47.282;9.640;2023-10-08T00:31:42;13.50;99.90
18884;DHT22;9574;47.282;9.640;2023-10-08T00:34:11;13.60;99.90
18884;DHT22;9574;47.282;9.640;2023-10-08T00:36:40;13.80;99.90
18884;DHT22;9574;47.282;9.640;2023-10-08T00:39:08;13.60;99.90
18884;DHT22;9574;47.282;9.640;2023-10-08T00:41:39;13.40;99.90
18884;DHT22;9574;47.282;9.640;2023-10-08T00:44:08;13.30;99.90
18884;DHT22;9574;47.282;9.640;2023-10-08T00:46:38;13.30;99.90
18884;DHT22;9574;47.282;9.640;2023-10-08T00:49:08;13.20;99.90
18884;DHT22;9574;47.282;9.640;2023-10-08T00:51:52;13.20;99.90
18884;DHT22;9574;47.282;9.640;2023-10-08T00:54:43;13.20;99.90
18884;DHT22;9574;47.282;9.640;2023-10-08T00:57:22;13.20;99.90
18884;DHT22;9574;47.282;9.640;2023-10-08T00:59:49;13.30;99.90
18884;DHT22;9574;47.282;9.640;2023-10-08T01:02:19;13.30;99.90
18884;DHT22;9574;47.282;9.640;2023-10-08T01:04:49;13.30;99.90
18884;DHT22;9574;47.282;9.640;2023-10-08T01:07:18;13.20;99.90
18884;DHT22;9574;47.282;9.640;2023-10-08T01:09:45;13.10;99.90
18884;DHT22;9574;47.282;9.640;2023-10-08T01:12:17;13.10;99.90
18884;DHT22;9574;47.282;9.640;2023-10-08T01:14:48;13.00;99.90
18884;DHT22;9574;47.282;9.640;2023-10-08T01:17:20;12.90;99.90
18884;DHT22;9574;47.282;9.640;2023-10-08T01:19:52;12.80;99.90
18884;DHT22;9574;47.282;9.640;2023-10-08T01:22:23;12.90;99.90
18884;DHT22;9574;47.282;9.640;2023-10-08T01:24:54;12.90;99.90
18884;DHT22;9574;47.282;9.640;2023-10-08T01:27:21;13.10;99.90
18884;DHT22;9574;47.282;9.640;2023-10-08T01:29:50;13.20;99.90
18884;DHT22;9574;47.282;9.640;2023-10-08T01:32:18;13.30;99.90
18884;DHT22;9574;47.282;9.640;2023-10-08T01:34:46;13.20;99.90
18884;DHT22;9574;47.282;9.640;2023-10-08T01:37:14;13.10;99.90
18884;DHT22;9574;47.282;9.640;2023-10-08T01:39:44;13.00;99.90
18884;DHT22;9574;47.282;9.640;2023-10-08T01:42:11;13.40;99.90
18884;DHT22;9574;47.282;9.640;2023-10-08T01:44:43;13.20;99.90
18884;DHT22;9574;47.282;9.640;2023-10-08T01:47:12;13.40;99.90
18884;DHT22;9574;47.282;9.640;2023-10-08T01:49:39;13.20;99.90
18884;DHT22;9574;47.282;9.640;2023-10-08T01:52:08;13.10;99.90
18884;DHT22;9574;47.282;9.640;2023-10-08T01:54:44;13.10;99.90
18884;DHT22;9574;47.282;9.640;2023-10-08T01:57:11;13.00;99.90
18884;DHT22;9574;47.282;9.640;2023-10-08T01:59:38;12.80;99.90
18884;DHT22;9574;47.282;9.640;2023-10-08T02:02:06;12.70;99.90
18884;DHT22;9574;47.282;9.640;2023-10-08T02:04:33;12.70;99.90
18884;DHT22;9574;47.282;9.640;2023-10-08T02:07:01;12.60;99.90
18884;DHT22;9574;47.282;9.640;2023-10-08T02:09:33;12.50;99.90
18884;DHT22;9574;47.282;9.640;2023-10-08T02:12:01;12.50;99.90
18884;DHT22;9574;47.282;9.640;2023-10-08T02:14:29;12.80;99.90
18884;DHT22;9574;47.282;9.640;2023-10-08T02:16:58;13.20;99.90
18884;DHT22;9574;47.282;9.640;2023-10-08T02:19:27;13.00;99.90
18884;DHT22;9574;47.282;9.640;2023-10-08T02:21:54;13.10;99.90
18884;DHT22;9574;47.282;9.640;2023-10-08T02:24:22;13.00;99.90
18884;DHT22;9574;47.282;9.640;2023-10-08T02:26:50;13.00;99.90
18884;DHT22;9574;47.282;9.640;2023-10-08T02:29:20;12.90;99.90
18884;DHT22;9574;47.282;9.640;2023-10-08T02:31:47;12.90;99.90
18884;DHT22;9574;47.282;9.640;2023-10-08T02:34:14;12.80;99.90
18884;DHT22;9574;47.282;9.640;2023-10-08T02:36:41;12.70;99.90
18884;DHT22;9574;47.282;9.640;2023-10-08T02:39:09;12.80;99.90
18884;DHT22;9574;47.282;9.640;2023-10-08T02:41:47;12.80;99.90
18884;DHT22;9574;47.282;9.640;2023-10-08T02:44:15;12.80;99.90
18884;DHT22;9574;47.282;9.640;2023-10-08T02:46:45;12.90;99.90
18884;DHT22;9574;47.282;9.640;2023-10-08T02:49:13;12.90;99.90
18884;DHT22;9574;47.282;9.640;2023-10-08T02:51:45;13.30;99.90
18884;DHT22;9574;47.282;9.640;2023-10-08T02:54:12;13.20;99.90
18884;DHT22;9574;47.282;9.640;2023-10-08T02:56:44;13.30;99.90
18884;DHT22;9574;47.282;9.640;2023-10-08T02:59:12;13.60;99.90
18884;DHT22;9574;47.282;9.640;2023-10-08T03:01:40;13.80;99.90
18884;DHT22;9574;47.282;9.640;2023-10-08T03:04:09;13.60;99.90
18884;DHT22;9574;47.282;9.640;2023-10-08T03:06:44;13.40;99.90
18884;DHT22;9574;47.282;9.640;2023-10-08T03:09:15;13.20;99.90
18884;DHT22;9574;47.282;9.640;2023-10-08T03:11:46;13.10;99.90
18884;DHT22;9574;47.282;9.640;2023-10-08T03:14:15;13.10;99.90
18884;DHT22;9574;47.282;9.640;2023-10-08T03:16:48;13.00;99.90
18884;DHT22;9574;47.282;9.640;2023-10-08T03:19:17;13.00;99.90
18884;DHT22;9574;47.282;9.640;2023-10-08T03:21:46;13.00;99.90
18884;DHT22;9574;47.282;9.640;2023-10-08T03:24:17;13.00;99.90
18884;DHT22;9574;47.282;9.640;2023-10-08T03:26:56;12.90;99.90
18884;DHT22;9574;47.282;9.640;2023-10-08T03:29:32;12.80;99.90
18884;DHT22;9574;47.282;9.640;2023-10-08T03:32:06;12.80;99.90
18884;DHT22;9574;47.282;9.640;2023-10-08T03:34:40;12.80;99.90
18884;DHT22;9574;47.282;9.640;2023-10-08T03:37:09;12.80;99.90
18884;DHT22;9574;47.282;9.640;2023-10-08T03:39:36;12.80;99.90
18884;DHT22;9574;47.282;9.640;2023-10-08T03:42:20;12.80;99.90
18884;DHT22;9574;47.282;9.640;2023-10-08T03:44:55;12.80;99.90
18884;DHT22;9574;47.282;9.640;2023-10-08T03:47:23;13.10;99.90
18884;DHT22;9574;47.282;9.640;2023-10-08T03:49:53;13.40;99.90
18884;DHT22;9574;47.282;9.640;2023-10-08T03:52:21;13.70;99.90
18884;DHT22;9574;47.282;9.640;2023-10-08T03:54:50;13.70;99.90
18884;DHT22;9574;47.282;9.640;2023-10-08T03:57:30;13.50;99.90
18884;DHT22;9574;47.282;9.640;2023-10-08T04:00:08;13.40;99.90
18884;DHT22;9574;47.282;9.640;2023-10-08T04:02:39;13.20;99.90
18884;DHT22;9574;47.282;9.640;2023-10-08T04:05:08;13.10;99.90
18884;DHT22;9574;47.282;9.640;2023-10-08T04:07:45;13.00;99.90
18884;DHT22;9574;47.282;9.640;2023-10-08T04:10:42;12.90;99.90
18884;DHT22;9574;47.282;9.640;2023-10-08T04:13:27;12.80;99.90
18884;DHT22;9574;47.282;9.640;2023-10-08T04:15:56;12.80;99.90
18884;DHT22;9574;47.282;9.640;2023-10-08T04:18:23;12.80;99.90
18884;DHT22;9574;47.282;9.640;2023-10-08T04:20:52;12.80;99.90
18884;DHT22;9574;47.282;9.640;2023-10-08T04:23:30;12.70;99.90
18884;DHT22;9574;47.282;9.640;2023-10-08T04:25:57;12.70;99.90
18884;DHT22;9574;47.282;9.640;2023-10-08T04:28:24;12.70;99.90
18884;DHT22;9574;47.282;9.640;2023-10-08T04:30:54;12.70;99.90
18884;DHT22;9574;47.282;9.640;2023-10-08T04:33:27;12.60;99.90
18884;DHT22;9574;47.282;9.640;2023-10-08T04:36:00;12.60;99.90
18884;DHT22;9574;47.282;9.640;2023-10-08T04:38:28;12.60;99.90
18884;DHT22;9574;47.282;9.640;2023-10-08T04:41:02;12.50;99.90
18884;DHT22;9574;47.282;9.640;2023-10-08T04:43:34;12.50;99.90
18884;DHT22;9574;47.282;9.640;2023-10-08T04:46:05;12.60;99.90
18884;DHT22;9574;47.282;9.640;2023-10-08T04:48:44;13.00;99.90
18884;DHT22;9574;47.282;9.640;2023-10-08T04:51:13;13.00;99.90
18884;DHT22;9574;47.282;9.640;2023-10-08T04:53:40;12.80;99.90
18884;DHT22;9574;47.282;9.640;2023-10-08T04:56:11;12.70;99.90
18884;DHT22;9574;47.282;9.640;2023-10-08T04:58:42;12.60;99.90
18884;DHT22;9574;47.282;9.640;2023-10-08T05:01:12;12.50;99.90
18884;DHT22;9574;47.282;9.640;2023-10-08T05:03:47;12.40;99.90
18884;DHT22;9574;47.282;9.640;2023-10-08T05:06:34;12.40;99.90
18884;DHT22;9574;47.282;9.640;2023-10-08T05:09:26;12.60;99.90
18884;DHT22;9574;47.282;9.640;2023-10-08T05:12:06;12.60;99.90
18884;DHT22;9574;47.282;9.640;2023-10-08T05:14:54;12.60;99.90
18884;DHT22;9574;47.282;9.640;2023-10-08T05:17:47;12.50;99.90
18884;DHT22;9574;47.282;9.640;2023-10-08T05:20:34;12.50;99.90
18884;DHT22;9574;47.282;9.640;2023-10-08T05:23:14;12.40;99.90
18884;DHT22;9574;47.282;9.640;2023-10-08T05:26:07;12.30;99.90
18884;DHT22;9574;47.282;9.640;2023-10-08T05:28:35;12.30;99.90
18884;DHT22;9574;47.282;9.640;2023-10-08T05:31:15;12.20;99.90
18884;DHT22;9574;47.282;9.640;2023-10-08T05:34:02;12.20;99.90
18884;DHT22;9574;47.282;9.640;2023-10-08T05:36:43;12.20;99.90
18884;DHT22;9574;47.282;9.640;2023-10-08T05:39:17;12.20;99.90
18884;DHT22;9574;47.282;9.640;2023-10-08T05:41:55;12.10;99.90
18884;DHT22;9574;47.282;9.640;2023-10-08T05:44:39;12.20;99.90
18884;DHT22;9574;47.282;9.640;2023-10-08T05:47:11;12.40;99.90
18884;DHT22;9574;47.282;9.640;2023-10-08T05:50:05;12.50;99.90
18884;DHT22;9574;47.282;9.640;2023-10-08T05:53:04;12.40;99.90
18884;DHT22;9574;47.282;9.640;2023-10-08T05:55:46;12.50;99.90
18884;DHT22;9574;47.282;9.640;2023-10-08T05:58:26;12.50;99.90
18884;DHT22;9574;47.282;9.640;2023-10-08T06:01:11;12.40;99.90
18884;DHT22;9574;47.282;9.640;2023-10-08T06:03:51;12.40;99.90
18884;DHT22;9574;47.282;9.640;2023-10-08T06:06:37;12.40;99.90
18884;DHT22;9574;47.282;9.640;2023-10-08T06:09:06;12.40;99.90
18884;DHT22;9574;47.282;9.640;2023-10-08T06:11:48;12.30;99.90
18884;DHT22;9574;47.282;9.640;2023-10-08T06:14:35;12.30;99.90
18884;DHT22;9574;47.282;9.640;2023-10-08T06:17:34;12.20;99.90
18884;DHT22;9574;47.282;9.640;2023-10-08T06:20:10;12.40;99.90
18884;DHT22;9574;47.282;9.640;2023-10-08T06:22:42;12.50;99.90
18884;DHT22;9574;47.282;9.640;2023-10-08T06:25:08;12.40;99.90
18884;DHT22;9574;47.282;9.640;2023-10-08T06:27:53;12.40;99.90
18884;DHT22;9574;47.282;9.640;2023-10-08T06:30:21;12.40;99.90
18884;DHT22;9574;47.282;9.640;2023-10-08T06:32:49;12.40;99.90
18884;DHT22;9574;47.282;9.640;2023-10-08T06:35:19;12.50;99.90
18884;DHT22;9574;47.282;9.640;2023-10-08T06:37:51;12.60;99.90
18884;DHT22;9574;47.282;9.640;2023-10-08T06:40:20;12.70;99.90
18884;DHT22;9574;47.282;9.640;2023-10-08T06:43:07;12.80;99.90
18884;DHT22;9574;47.282;9.640;2023-10-08T06:45:47;13.00;99.90
18884;DHT22;9574;47.282;9.640;2023-10-08T06:48:18;13.20;99.90
18884;DHT22;9574;47.282;9.640;2023-10-08T06:50:46;13.30;99.90
18884;DHT22;9574;47.282;9.640;2023-10-08T06:53:14;13.50;99.90
18884;DHT22;9574;47.282;9.640;2023-10-08T06:55:44;13.70;99.90
18884;DHT22;9574;47.282;9.640;2023-10-08T06:58:15;13.80;99.90
18884;DHT22;9574;47.282;9.640;2023-10-08T07:00:43;13.90;99.90
18884;DHT22;9574;47.282;9.640;2023-10-08T07:03:15;14.00;99.90
18884;DHT22;9574;47.282;9.640;2023-10-08T07:05:45;14.20;99.90
18884;DHT22;9574;47.282;9.640;2023-10-08T07:08:21;14.30;99.90
18884;DHT22;9574;47.282;9.640;2023-10-08T07:10:49;14.50;99.90
18884;DHT22;9574;47.282;9.640;2023-10-08T07:13:17;14.70;99.90
18884;DHT22;9574;47.282;9.640;2023-10-08T07:15:45;14.80;99.90
18884;DHT22;9574;47.282;9.640;2023-10-08T07:18:12;14.90;99.90
18884;DHT22;9574;47.282;9.640;2023-10-08T07:20:44;15.00;99.90
18884;DHT22;9574;47.282;9.640;2023-10-08T07:23:11;15.10;99.90
18884;DHT22;9574;47.282;9.640;2023-10-08T07:25:55;15.20;99.90
18884;DHT22;9574;47.282;9.640;2023-10-08T07:28:27;15.60;99.90
18884;DHT22;9574;47.282;9.640;2023-10-08T07:30:55;16.00;99.90
18884;DHT22;9574;47.282;9.640;2023-10-08T07:33:23;16.20;99.90
18884;DHT22;9574;47.282;9.640;2023-10-08T07:36:02;16.40;99.90
18884;DHT22;9574;47.282;9.640;2023-10-08T07:38:38;16.60;99.90
18884;DHT22;9574;47.282;9.640;2023-10-08T07:41:05;16.60;99.90
18884;DHT22;9574;47.282;9.640;2023-10-08T07:43:34;16.70;99.90
18884;DHT22;9574;47.282;9.640;2023-10-08T07:46:01;17.00;99.90
18884;DHT22;9574;47.282;9.640;2023-10-08T07:48:31;17.30;99.90
18884;DHT22;9574;47.282;9.640;2023-10-08T07:50:58;17.50;99.90
18884;DHT22;9574;47.282;9.640;2023-10-08T07:53:25;17.60;99.90
18884;DHT22;9574;47.282;9.640;2023-10-08T07:56:04;17.80;99.90
18884;DHT22;9574;47.282;9.640;2023-10-08T07:58:33;18.20;99.90
18884;DHT22;9574;47.282;9.640;2023-10-08T08:01:03;18.60;99.90
18884;DHT22;9574;47.282;9.640;2023-10-08T08:03:32;18.90;99.90
18884;DHT22;9574;47.282;9.640;2023-10-08T08:06:00;19.20;99.90
18884;DHT22;9574;47.282;9.640;2023-10-08T08:08:27;19.60;99.90
18884;DHT22;9574;47.282;9.640;2023-10-08T08:10:54;19.80;99.90
18884;DHT22;9574;47.282;9.640;2023-10-08T08:13:24;20.10;99.90
18884;DHT22;9574;47.282;9.640;2023-10-08T08:15:55;20.10;99.90
18884;DHT22;9574;47.282;9.640;2023-10-08T08:18:25;20.30;99.90
18884;DHT22;9574;47.282;9.640;2023-10-08T08:20:59;20.40;99.90
18884;DHT22;9574;47.282;9.640;2023-10-08T08:23:28;20.60;99.90
18884;DHT22;9574;47.282;9.640;2023-10-08T08:25:56;20.50;99.90
18884;DHT22;9574;47.282;9.640;2023-10-08T08:28:37;20.40;99.90
18884;DHT22;9574;47.282;9.640;2023-10-08T08:31:06;20.60;99.90
18884;DHT22;9574;47.282;9.640;2023-10-08T08:33:42;20.50;99.90
18884;DHT22;9574;47.282;9.640;2023-10-08T08:36:26;20.40;99.90
18884;DHT22;9574;47.282;9.640;2023-10-08T08:38:54;20.50;99.90
18884;DHT22;9574;47.282;9.640;2023-10-08T08:41:22;20.60;99.90
18884;DHT22;9574;47.282;9.640;2023-10-08T08:43:50;20.80;99.90
18884;DHT22;9574;47.282;9.640;2023-10-08T08:46:30;20.80;99.90
18884;DHT22;9574;47.282;9.640;2023-10-08T08:49:01;20.90;99.90
18884;DHT22;9574;47.282;9.640;2023-10-08T08:51:29;21.30;99.90
18884;DHT22;9574;47.282;9.640;2023-10-08T08:53:59;21.50;99.90
18884;DHT22;9574;47.282;9.640;2023-10-08T08:56:32;21.70;99.90
18884;DHT22;9574;47.282;9.640;2023-10-08T08:59:01;21.80;99.90
18884;DHT22;9574;47.282;9.640;2023-10-08T09:01:30;21.90;99.90
18884;DHT22;9574;47.282;9.640;2023-10-08T09:04:01;22.00;99.90
18884;DHT22;9574;47.282;9.640;2023-10-08T09:06:32;22.30;99.90
18884;DHT22;9574;47.282;9.640;2023-10-08T09:08:59;22.50;99.90
18884;DHT22;9574;47.282;9.640;2023-10-08T09:11:40;22.70;99.90
18884;DHT22;9574;47.282;9.640;2023-10-08T09:14:08;22.80;99.90
18884;DHT22;9574;47.282;9.640;2023-10-08T09:16:38;22.90;99.90
18884;DHT22;9574;47.282;9.640;2023-10-08T09:19:05;23.00;99.90
18884;DHT22;9574;47.282;9.640;2023-10-08T09:21:37;23.00;99.90
18884;DHT22;9574;47.282;9.640;2023-10-08T09:24:05;22.90;99.90
18884;DHT22;9574;47.282;9.640;2023-10-08T09:26:39;23.00;99.90
18884;DHT22;9574;47.282;9.640;2023-10-08T09:29:11;22.90;99.90
18884;DHT22;9574;47.282;9.640;2023-10-08T09:31:39;22.90;99.90
18884;DHT22;9574;47.282;9.640;2023-10-08T09:34:16;22.80;99.90
18884;DHT22;9574;47.282;9.640;2023-10-08T09:36:43;22.90;99.90
18884;DHT22;9574;47.282;9.640;2023-10-08T09:39:11;22.90;99.90
18884;DHT22;9574;47.282;9.640;2023-10-08T09:41:50;23.30;99.90
18884;DHT22;9574;47.282;9.640;2023-10-08T09:44:19;23.40;99.90
18884;DHT22;9574;47.282;9.640;2023-10-08T09:46:52;23.40;99.90
18884;DHT22;9574;47.282;9.640;2023-10-08T09:49:24;23.60;99.90
18884;DHT22;9574;47.282;9.640;2023-10-08T09:51:55;23.80;99.90
18884;DHT22;9574;47.282;9.640;2023-10-08T09:54:27;23.90;99.90
18884;DHT22;9574;47.282;9.640;2023-10-08T09:56:58;24.00;99.90
18884;DHT22;9574;47.282;9.640;2023-10-08T09:59:27;24.30;99.90
18884;DHT22;9574;47.282;9.640;2023-10-08T10:01:57;24.30;99.90
18884;DHT22;9574;47.282;9.640;2023-10-08T10:04:25;24.20;99.90
18884;DHT22;9574;47.282;9.640;2023-10-08T10:06:54;24.40;99.90
18884;DHT22;9574;47.282;9.640;2023-10-08T10:09:25;24.50;99.90
18884;DHT22;9574;47.282;9.640;2023-10-08T10:11:53;24.20;99.90
18884;DHT22;9574;47.282;9.640;2023-10-08T10:14:23;24.40;99.90
18884;DHT22;9574;47.282;9.640;2023-10-08T10:17:08;24.70;99.90
18884;DHT22;9574;47.282;9.640;2023-10-08T10:19:36;25.00;99.90
18884;DHT22;9574;47.282;9.640;2023-10-08T10:22:04;25.20;99.90
18884;DHT22;9574;47.282;9.640;2023-10-08T10:24:33;25.40;99.90
18884;DHT22;9574;47.282;9.640;2023-10-08T10:27:13;25.60;99.90
18884;DHT22;9574;47.282;9.640;2023-10-08T10:29:41;25.70;99.90
18884;DHT22;9574;47.282;9.640;2023-10-08T10:32:12;25.70;99.90
18884;DHT22;9574;47.282;9.640;2023-10-08T10:34:41;25.90;99.90
18884;DHT22;9574;47.282;9.640;2023-10-08T10:37:19;26.00;99.90
18884;DHT22;9574;47.282;9.640;2023-10-08T10:39:52;26.00;99.90
18884;DHT22;9574;47.282;9.640;2023-10-08T10:42:21;25.50;99.90
18884;DHT22;9574;47.282;9.640;2023-10-08T10:44:49;25.10;99.90
18884;DHT22;9574;47.282;9.640;2023-10-08T10:47:19;24.70;99.90
18884;DHT22;9574;47.282;9.640;2023-10-08T10:50:08;24.50;99.90
18884;DHT22;9574;47.282;9.640;2023-10-08T10:52:52;24.50;99.90
18884;DHT22;9574;47.282;9.640;2023-10-08T10:55:19;24.70;99.90
18884;DHT22;9574;47.282;9.640;2023-10-08T10:57:50;24.80;99.90
18884;DHT22;9574;47.282;9.640;2023-10-08T11:00:30;24.70;99.90
18884;DHT22;9574;47.282;9.640;2023-10-08T11:03:16;24.40;99.90
18884;DHT22;9574;47.282;9.640;2023-10-08T11:05:50;24.40;99.90
18884;DHT22;9574;47.282;9.640;2023-10-08T11:08:21;24.50;99.90
18884;DHT22;9574;47.282;9.640;2023-10-08T11:10:50;24.40;99.90
18884;DHT22;9574;47.282;9.640;2023-10-08T11:13:19;24.30;99.90
18884;DHT22;9574;47.282;9.640;2023-10-08T11:15:50;24.10;99.90
18884;DHT22;9574;47.282;9.640;2023-10-08T11:18:20;24.00;99.90
18884;DHT22;9574;47.282;9.640;2023-10-08T11:20:49;23.80;99.90
18884;DHT22;9574;47.282;9.640;2023-10-08T11:23:32;23.80;99.90
18884;DHT22;9574;47.282;9.640;2023-10-08T11:26:01;23.80;99.90
18884;DHT22;9574;47.282;9.640;2023-10-08T11:28:30;23.90;99.90
18884;DHT22;9574;47.282;9.640;2023-10-08T11:31:00;24.00;99.90
18884;DHT22;9574;47.282;9.640;2023-10-08T11:33:35;24.10;99.90
18884;DHT22;9574;47.282;9.640;2023-10-08T11:36:03;24.30;99.90
18884;DHT22;9574;47.282;9.640;2023-10-08T11:38:39;24.50;99.90
18884;DHT22;9574;47.282;9.640;2023-10-08T11:41:11;24.80;99.90
18884;DHT22;9574;47.282;9.640;2023-10-08T11:43:47;24.80;99.90
18884;DHT22;9574;47.282;9.640;2023-10-08T11:46:17;24.60;99.90
18884;DHT22;9574;47.282;9.640;2023-10-08T11:48:46;24.50;99.90
18884;DHT22;9574;47.282;9.640;2023-10-08T11:51:13;24.30;99.90
18884;DHT22;9574;47.282;9.640;2023-10-08T11:53:42;24.20;99.90
18884;DHT22;9574;47.282;9.640;2023-10-08T11:56:11;24.20;99.90
18884;DHT22;9574;47.282;9.640;2023-10-08T11:58:44;24.20;99.90
18884;DHT22;9574;47.282;9.640;2023-10-08T12:01:11;24.10;99.90
18884;DHT22;9574;47.282;9.640;2023-10-08T12:03:41;24.00;99.90
18884;DHT22;9574;47.282;9.640;2023-10-08T12:06:11;23.90;99.90
18884;DHT22;9574;47.282;9.640;2023-10-08T12:08:41;23.90;99.90
18884;DHT22;9574;47.282;9.640;2023-10-08T12:11:14;23.70;99.90
18884;DHT22;9574;47.282;9.640;2023-10-08T12:13:42;23.60;99.90
18884;DHT22;9574;47.282;9.640;2023-10-08T12:16:12;23.50;99.90
18884;DHT22;9574;47.282;9.640;2023-10-08T12:18:44;23.60;99.90
18884;DHT22;9574;47.282;9.640;2023-10-08T12:21:15;23.80;99.90
18884;DHT22;9574;47.282;9.640;2023-10-08T12:23:43;24.40;99.90
18884;DHT22;9574;47.282;9.640;2023-10-08T12:26:12;24.80;99.90
18884;DHT22;9574;47.282;9.640;2023-10-08T12:28:42;25.00;99.90
18884;DHT22;9574;47.282;9.640;2023-10-08T12:31:10;25.00;99.90
18884;DHT22;9574;47.282;9.640;2023-10-08T12:33:37;25.10;99.90
18884;DHT22;9574;47.282;9.640;2023-10-08T12:36:06;25.00;99.90
18884;DHT22;9574;47.282;9.640;2023-10-08T12:38:39;24.90;99.90
18884;DHT22;9574;47.282;9.640;2023-10-08T12:41:07;24.60;99.90
18884;DHT22;9574;47.282;9.640;2023-10-08T12:43:38;24.60;99.90
18884;DHT22;9574;47.282;9.640;2023-10-08T12:46:08;24.50;99.90
18884;DHT22;9574;47.282;9.640;2023-10-08T12:48:44;24.50;99.90
18884;DHT22;9574;47.282;9.640;2023-10-08T12:51:14;24.60;99.90
18884;DHT22;9574;47.282;9.640;2023-10-08T12:53:43;24.60;99.90
18884;DHT22;9574;47.282;9.640;2023-10-08T12:56:17;24.70;99.90
18884;DHT22;9574;47.282;9.640;2023-10-08T12:58:47;24.70;99.90
18884;DHT22;9574;47.282;9.640;2023-10-08T13:01:15;24.60;99.90
18884;DHT22;9574;47.282;9.640;2023-10-08T13:03:43;24.50;99.90
18884;DHT22;9574;47.282;9.640;2023-10-08T13:06:13;24.50;99.90
18884;DHT22;9574;47.282;9.640;2023-10-08T13:08:49;24.30;99.90
18884;DHT22;9574;47.282;9.640;2023-10-08T13:11:18;24.10;99.90
18884;DHT22;9574;47.282;9.640;2023-10-08T13:13:49;23.90;99.90
18884;DHT22;9574;47.282;9.640;2023-10-08T13:16:16;23.80;99.90
18884;DHT22;9574;47.282;9.640;2023-10-08T13:18:43;23.80;99.90
18884;DHT22;9574;47.282;9.640;2023-10-08T13:21:11;23.80;99.90
18884;DHT22;9574;47.282;9.640;2023-10-08T13:23:38;23.80;99.90
18884;DHT22;9574;47.282;9.640;2023-10-08T13:26:08;23.80;99.90
18884;DHT22;9574;47.282;9.640;2023-10-08T13:28:35;23.90;99.90
18884;DHT22;9574;47.282;9.640;2023-10-08T13:31:03;23.80;99.90
18884;DHT22;9574;47.282;9.640;2023-10-08T13:33:36;23.80;99.90
18884;DHT22;9574;47.282;9.640;2023-10-08T13:36:05;23.70;99.90
18884;DHT22;9574;47.282;9.640;2023-10-08T13:38:35;23.80;99.90
18884;DHT22;9574;47.282;9.640;2023-10-08T13:41:02;23.80;99.90
18884;DHT22;9574;47.282;9.640;2023-10-08T13:43:33;23.90;99.90
18884;DHT22;9574;47.282;9.640;2023-10-08T13:46:02;23.90;99.90
18884;DHT22;9574;47.282;9.640;2023-10-08T13:48:31;24.00;99.90
18884;DHT22;9574;47.282;9.640;2023-10-08T13:51:00;23.80;99.90
18884;DHT22;9574;47.282;9.640;2023-10-08T13:53:30;23.90;99.90
18884;DHT22;9574;47.282;9.640;2023-10-08T13:55:58;24.00;99.90
18884;DHT22;9574;47.282;9.640;2023-10-08T13:58:27;24.00;99.90
18884;DHT22;9574;47.282;9.640;2023-10-08T14:00:57;24.10;99.90
18884;DHT22;9574;47.282;9.640;2023-10-08T14:03:26;24.20;99.90
18884;DHT22;9574;47.282;9.640;2023-10-08T14:05:57;24.30;99.90
18884;DHT22;9574;47.282;9.640;2023-10-08T14:08:30;24.30;99.90
18884;DHT22;9574;47.282;9.640;2023-10-08T14:10:58;24.20;99.90
18884;DHT22;9574;47.282;9.640;2023-10-08T14:13:29;24.00;99.90
18884;DHT22;9574;47.282;9.640;2023-10-08T14:15:58;24.00;99.90
18884;DHT22;9574;47.282;9.640;2023-10-08T14:18:30;23.90;99.90
18884;DHT22;9574;47.282;9.640;2023-10-08T14:21:06;23.80;99.90
18884;DHT22;9574;47.282;9.640;2023-10-08T14:23:35;23.80;99.90
18884;DHT22;9574;47.282;9.640;2023-10-08T14:26:05;23.80;99.90
18884;DHT22;9574;47.282;9.640;2023-10-08T14:28:33;23.80;99.90
18884;DHT22;9574;47.282;9.640;2023-10-08T14:31:18;23.70;99.90
18884;DHT22;9574;47.282;9.640;2023-10-08T14:33:48;23.60;99.90
18884;DHT22;9574;47.282;9.640;2023-10-08T14:36:31;23.40;99.90
18884;DHT22;9574;47.282;9.640;2023-10-08T14:39:15;23.30;99.90
18884;DHT22;9574;47.282;9.640;2023-10-08T14:42:00;23.20;99.90
18884;DHT22;9574;47.282;9.640;2023-10-08T14:44:44;23.10;99.90
18884;DHT22;9574;47.282;9.640;2023-10-08T14:47:13;23.00;99.90
18884;DHT22;9574;47.282;9.640;2023-10-08T14:49:41;23.00;99.90
18884;DHT22;9574;47.282;9.640;2023-10-08T14:52:09;23.00;99.90
18884;DHT22;9574;47.282;9.640;2023-10-08T14:54:36;23.10;99.90
18884;DHT22;9574;47.282;9.640;2023-10-08T14:57:05;23.20;99.90
18884;DHT22;9574;47.282;9.640;2023-10-08T14:59:32;23.10;99.90
18884;DHT22;9574;47.282;9.640;2023-10-08T15:01:59;23.00;99.90
18884;DHT22;9574;47.282;9.640;2023-10-08T15:04:27;23.00;99.90
18884;DHT22;9574;47.282;9.640;2023-10-08T15:06:55;23.10;99.90
18884;DHT22;9574;47.282;9.640;2023-10-08T15:09:23;23.10;99.90
18884;DHT22;9574;47.282;9.640;2023-10-08T15:11:50;23.00;99.90
18884;DHT22;9574;47.282;9.640;2023-10-08T15:14:18;22.80;99.90
18884;DHT22;9574;47.282;9.640;2023-10-08T15:16:45;22.60;99.90
18884;DHT22;9574;47.282;9.640;2023-10-08T15:19:18;22.60;99.90
18884;DHT22;9574;47.282;9.640;2023-10-08T15:21:46;22.50;99.90
18884;DHT22;9574;47.282;9.640;2023-10-08T15:24:17;22.50;99.90
18884;DHT22;9574;47.282;9.640;2023-10-08T15:26:46;22.40;99.90
18884;DHT22;9574;47.282;9.640;2023-10-08T15:29:14;22.40;99.90
18884;DHT22;9574;47.282;9.640;2023-10-08T15:31:41;22.30;99.90
18884;DHT22;9574;47.282;9.640;2023-10-08T15:36:38;22.50;99.90
18884;DHT22;9574;47.282;9.640;2023-10-08T15:39:06;22.50;99.90
18884;DHT22;9574;47.282;9.640;2023-10-08T15:41:36;22.40;99.90
18884;DHT22;9574;47.282;9.640;2023-10-08T15:44:03;22.30;99.90
18884;DHT22;9574;47.282;9.640;2023-10-08T15:46:31;22.20;99.90
18884;DHT22;9574;47.282;9.640;2023-10-08T15:49:00;22.20;99.90
18884;DHT22;9574;47.282;9.640;2023-10-08T15:51:28;22.30;99.90
18884;DHT22;9574;47.282;9.640;2023-10-08T15:53:57;22.30;99.90
18884;DHT22;9574;47.282;9.640;2023-10-08T15:56:26;22.30;99.90
18884;DHT22;9574;47.282;9.640;2023-10-08T15:58:53;22.30;99.90
18884;DHT22;9574;47.282;9.640;2023-10-08T16:01:20;22.20;99.90
18884;DHT22;9574;47.282;9.640;2023-10-08T16:03:47;22.20;99.90
18884;DHT22;9574;47.282;9.640;2023-10-08T16:06:14;22.10;99.90
18884;DHT22;9574;47.282;9.640;2023-10-08T16:08:41;22.10;99.90
18884;DHT22;9574;47.282;9.640;2023-10-08T16:11:08;21.90;99.90
18884;DHT22;9574;47.282;9.640;2023-10-08T16:13:36;21.80;99.90
18884;DHT22;9574;47.282;9.640;2023-10-08T16:16:05;21.70;99.90